Terminal Aerodrome Forecast
Issued by NWS Northern Indiana

Home | Current Version | Previous Version | Graphics & Text | Print | Product List | Glossary On
Versions: 1 2 3 4 5 6 7 8 9 10 11 12 13
006
FTUS43 KIWX 261732
TAFFWA
TAF
KFWA 261732Z 2618/2718 27014G21KT P6SM SCT060
     FM270000 25008KT P6SM SKC
     FM271500 26012G21KT P6SM SCT200=

USA.gov is the U.S. government's official web portal to all federal, state and local government web resources and services.